Time;durP1;ratioP1;P1;durP2;ratioP2;P2;SDS_P1;SDS_P2;PMS_P1;PMS_P2;Temp;Humidity;BMP_temperature;BMP_pressure;BME280_temperature;BME280_humidity;BME280_pressure;Samples;Min_cycle;Max_cycle;Signal;HPM_P1;HPM_P2
2022/07/06 00:00:48;;;;;;;2.85;2.17;;;;;;;15.92;95.04;99254.63;5011798;28;20107;-65
2022/07/06 00:03:13;;;;;;;2.40;1.60;;;;;;;15.82;94.14;99255.16;4989637;28;20037;-65
2022/07/06 00:05:38;;;;;;;2.00;1.63;;;;;;;15.74;94.23;99258.19;4993593;28;20021;-65
2022/07/06 00:08:04;;;;;;;8.90;2.25;;;;;;;15.71;94.90;99264.09;4995644;28;20029;-65
2022/07/06 00:10:30;;;;;;;6.05;2.05;;;;;;;15.72;93.83;99254.88;4992168;28;20026;-65
2022/07/06 00:12:55;;;;;;;2.35;1.95;;;;;;;15.73;92.79;99261.97;5002215;28;20075;-65
2022/07/06 00:15:21;;;;;;;4.22;2.17;;;;;;;15.82;92.35;99265.25;4981675;28;20038;-65
2022/07/06 00:17:46;;;;;;;3.58;1.77;;;;;;;15.92;90.55;99266.38;4992660;28;20029;-65
2022/07/06 00:20:11;;;;;;;7.63;1.98;;;;;;;16.03;89.46;99266.69;4985497;28;20485;-65
2022/07/06 00:22:37;;;;;;;2.70;1.70;;;;;;;16.26;86.59;99269.56;4990894;28;20022;-65
2022/07/06 00:25:03;;;;;;;4.30;2.00;;;;;;;16.28;84.99;99269.34;5005773;28;20107;-65
2022/07/06 00:27:28;;;;;;;3.05;1.90;;;;;;;16.35;91.50;99264.66;4991937;28;20150;-65
2022/07/06 00:29:53;;;;;;;4.95;1.80;;;;;;;16.35;92.68;99265.47;4990015;28;20398;-65
2022/07/06 00:32:19;;;;;;;4.10;1.80;;;;;;;16.23;92.65;99258.28;4986797;28;20038;-65
2022/07/06 00:34:44;;;;;;;3.85;2.20;;;;;;;16.14;95.43;99257.75;4991332;28;20025;-65
2022/07/06 00:37:09;;;;;;;3.72;2.00;;;;;;;16.09;94.63;99265.81;4986640;28;20426;-65
2022/07/06 00:39:35;;;;;;;2.97;1.85;;;;;;;16.03;96.02;99250.31;4989827;28;20516;-65
2022/07/06 00:42:00;;;;;;;2.60;1.63;;;;;;;15.96;99.63;99270.34;4985664;28;20432;-65
2022/07/06 00:44:26;;;;;;;3.35;1.83;;;;;;;15.99;99.81;99263.59;4987803;28;20061;-65
2022/07/06 00:46:51;;;;;;;5.47;1.83;;;;;;;15.90;100.00;99265.81;4991076;28;20026;-65
2022/07/06 00:52:01;;;;;;;3.67;1.88;;;;;;;15.73;97.59;99268.28;5008013;28;20045;-65
2022/07/06 00:54:30;;;;;;;2.97;2.17;;;;;;;15.68;98.12;99265.34;4990788;28;20030;-65
2022/07/06 00:56:56;;;;;;;4.53;2.10;;;;;;;15.70;95.68;99270.63;4989677;28;20030;-65
2022/07/06 00:59:23;;;;;;;5.40;1.90;;;;;;;15.58;96.72;99273.22;4990858;28;20022;-65
2022/07/06 01:01:48;;;;;;;2.97;2.17;;;;;;;15.64;100.00;99274.19;4989737;28;20477;-65
2022/07/06 01:04:14;;;;;;;3.83;1.95;;;;;;;15.42;100.00;99277.34;4985463;28;20054;-65
2022/07/06 01:06:40;;;;;;;3.00;1.98;;;;;;;15.38;100.00;99281.59;4991630;28;20474;-65
2022/07/06 01:09:06;;;;;;;5.53;1.88;;;;;;;15.32;100.00;99263.38;4994842;28;20125;-65
2022/07/06 01:11:31;;;;;;;4.78;1.88;;;;;;;15.17;100.00;99274.63;4989694;28;20058;-65
2022/07/06 01:13:59;;;;;;;3.40;1.83;;;;;;;15.25;100.00;99274.34;5001621;28;20112;-65
2022/07/06 01:16:25;;;;;;;3.08;1.80;;;;;;;15.29;99.85;99272.84;4988674;28;20037;-66
2022/07/06 01:18:50;;;;;;;2.03;1.83;;;;;;;15.21;99.60;99264.09;4990507;28;20432;-66
2022/07/06 01:21:15;;;;;;;4.40;1.95;;;;;;;15.13;100.00;99265.22;4989904;28;20018;-65
2022/07/06 01:23:47;;;;;;;3.17;2.30;;;;;;;15.16;100.00;99261.22;4991721;28;20061;-65
2022/07/06 01:26:19;;;;;;;2.45;1.70;;;;;;;15.02;98.34;99266.75;4987017;28;20024;-65
2022/07/06 01:28:46;;;;;;;2.00;1.52;;;;;;;15.00;100.00;99268.88;4988521;28;20022;-65
2022/07/06 01:31:17;;;;;;;3.03;2.10;;;;;;;15.13;100.00;99263.31;4989231;28;20453;-66
2022/07/06 01:33:43;;;;;;;5.43;2.50;;;;;;;14.99;100.00;99259.03;5000916;28;20025;-65
2022/07/06 01:36:09;;;;;;;3.85;2.60;;;;;;;14.95;100.00;99265.97;4992547;28;20048;-65
2022/07/06 01:38:54;;;;;;;4.78;2.40;;;;;;;14.79;100.00;99261.88;4997374;28;20029;-66
2022/07/06 01:41:21;;;;;;;6.22;2.75;;;;;;;14.76;100.00;99267.78;5011586;28;20037;-66
2022/07/06 01:43:46;;;;;;;6.45;2.97;;;;;;;14.53;100.00;99260.16;4997532;28;20045;-65
2022/07/06 01:46:12;;;;;;;4.30;2.70;;;;;;;14.49;100.00;99272.53;4991187;28;20434;-66
2022/07/06 01:48:38;;;;;;;4.00;2.67;;;;;;;14.35;100.00;99260.84;4998002;28;20048;-65
2022/07/06 01:51:04;;;;;;;6.10;2.88;;;;;;;14.35;100.00;99266.28;4999084;28;20053;-65
2022/07/06 01:53:29;;;;;;;5.82;2.50;;;;;;;14.27;100.00;99258.38;4994161;28;20473;-65
2022/07/06 01:55:55;;;;;;;12.68;2.72;;;;;;;14.17;100.00;99258.84;4990412;28;20030;-65
2022/07/06 01:58:21;;;;;;;6.70;2.53;;;;;;;14.17;100.00;99261.56;4996790;28;20492;-65
2022/07/06 02:00:46;;;;;;;4.75;2.58;;;;;;;14.10;100.00;99260.75;5010572;28;20057;-66
2022/07/06 02:03:12;;;;;;;2.78;2.40;;;;;;;14.02;100.00;99255.56;4997994;28;20119;-65
2022/07/06 02:05:37;;;;;;;6.88;2.95;;;;;;;13.96;100.00;99259.97;5005841;28;20064;-65
2022/07/06 02:08:02;;;;;;;3.05;2.58;;;;;;;13.86;100.00;99269.59;4996844;28;20473;-66
2022/07/06 02:10:28;;;;;;;3.63;2.60;;;;;;;13.84;100.00;99274.44;4993987;28;20170;-65
2022/07/06 02:12:53;;;;;;;5.05;2.83;;;;;;;13.84;100.00;99278.00;5033143;23;20045;-74
2022/07/06 02:15:18;;;;;;;4.40;2.72;;;;;;;13.77;100.00;99286.16;5035584;28;20044;-74
2022/07/06 02:17:44;;;;;;;2.72;2.20;;;;;;;13.68;100.00;99281.16;5036577;28;20104;-75
2022/07/06 02:20:09;;;;;;;7.50;2.47;;;;;;;13.70;100.00;99287.22;5043269;28;20049;-74
2022/07/06 02:22:35;;;;;;;3.42;3.03;;;;;;;13.71;100.00;99283.47;5028842;28;20025;-75
2022/07/06 02:25:00;;;;;;;2.95;2.58;;;;;;;13.63;100.00;99283.69;5028581;28;20072;-74
2022/07/06 02:27:25;;;;;;;3.85;2.50;;;;;;;13.53;100.00;99275.94;5035892;28;20040;-75
2022/07/06 02:29:51;;;;;;;6.47;3.08;;;;;;;13.69;100.00;99288.25;5032975;28;20655;-74
2022/07/06 02:32:16;;;;;;;7.03;2.80;;;;;;;13.61;100.00;99283.88;5031567;28;20069;-75
2022/07/06 02:34:41;;;;;;;4.03;2.80;;;;;;;13.74;100.00;99270.25;5030580;28;20036;-75
2022/07/06 02:37:07;;;;;;;5.03;2.78;;;;;;;13.61;100.00;99286.59;5041409;28;20040;-74
2022/07/06 02:39:32;;;;;;;4.68;2.70;;;;;;;13.72;100.00;99287.84;5045606;28;20037;-75
2022/07/06 02:41:57;;;;;;;6.43;2.83;;;;;;;13.55;100.00;99263.00;5046861;28;20033;-75
2022/07/06 02:44:22;;;;;;;6.75;3.05;;;;;;;13.65;100.00;99268.84;5036212;28;20529;-74
2022/07/06 02:46:48;;;;;;;4.93;2.83;;;;;;;13.60;100.00;99279.50;5033615;28;20021;-75
2022/07/06 02:49:13;;;;;;;6.63;2.47;;;;;;;13.62;100.00;99282.81;5029267;28;20465;-75
2022/07/06 02:51:38;;;;;;;4.55;2.78;;;;;;;13.52;100.00;99280.56;5030273;28;20029;-75
2022/07/06 02:54:04;;;;;;;3.47;2.83;;;;;;;13.38;100.00;99257.97;5029527;28;20025;-75
2022/07/06 02:56:29;;;;;;;3.95;2.88;;;;;;;13.55;100.00;99295.63;5032548;28;20025;-75
2022/07/06 02:58:54;;;;;;;3.65;3.00;;;;;;;13.66;100.00;99303.13;5034004;28;20030;-74
2022/07/06 03:01:19;;;;;;;7.57;3.22;;;;;;;13.44;100.00;99290.78;5032160;28;20390;-74
2022/07/06 03:03:45;;;;;;;7.88;3.38;;;;;;;13.28;100.00;99278.47;5037040;28;20108;-74
2022/07/06 03:06:10;;;;;;;5.10;3.10;;;;;;;13.38;100.00;99297.91;5035131;28;20029;-74
2022/07/06 03:08:35;;;;;;;6.38;3.60;;;;;;;13.27;100.00;99274.91;5033841;28;20026;-75
2022/07/06 03:11:01;;;;;;;5.88;3.22;;;;;;;13.33;100.00;99311.28;5020238;28;20036;-74
2022/07/06 03:13:27;;;;;;;6.95;3.55;;;;;;;13.33;100.00;99294.97;5032153;28;20075;-74
2022/07/06 03:15:52;;;;;;;12.50;3.85;;;;;;;13.22;100.00;99304.56;5034586;28;20107;-74
2022/07/06 03:18:18;;;;;;;6.30;3.60;;;;;;;13.12;100.00;99304.13;5035157;28;20479;-74
2022/07/06 03:20:43;;;;;;;3.72;3.30;;;;;;;12.90;100.00;99296.16;5030660;28;20034;-74
2022/07/06 03:23:08;;;;;;;5.35;3.13;;;;;;;13.00;100.00;99303.09;5023324;28;21142;-74
2022/07/06 03:25:34;;;;;;;12.43;3.53;;;;;;;12.93;100.00;99314.75;5027356;28;20057;-74
2022/07/06 03:27:59;;;;;;;4.78;2.97;;;;;;;12.85;100.00;99325.81;5030184;28;20502;-74
2022/07/06 03:30:24;;;;;;;4.85;3.17;;;;;;;12.73;100.00;99308.44;5022514;28;20494;-74
2022/07/06 03:32:49;;;;;;;4.13;2.97;;;;;;;12.80;100.00;99319.34;5026393;28;20483;-74
2022/07/06 03:35:15;;;;;;;5.15;3.60;;;;;;;12.61;100.00;99275.66;5025244;28;20025;-74
2022/07/06 03:37:40;;;;;;;5.85;3.40;;;;;;;12.81;100.00;99319.16;5021850;28;20372;-74
2022/07/06 03:40:06;;;;;;;5.47;2.85;;;;;;;12.88;100.00;99319.97;5024491;28;20479;-74
2022/07/06 03:42:31;;;;;;;7.78;3.28;;;;;;;12.82;100.00;99293.66;5027073;28;20123;-74
2022/07/06 03:44:56;;;;;;;4.32;3.40;;;;;;;12.94;100.00;99321.03;5036380;28;20022;-74
2022/07/06 03:47:22;;;;;;;5.13;3.45;;;;;;;13.02;100.00;99325.44;5026350;28;20033;-74
2022/07/06 03:49:47;;;;;;;5.53;3.42;;;;;;;12.99;100.00;99332.09;5027534;28;20017;-74
2022/07/06 03:52:12;;;;;;;3.63;2.85;;;;;;;12.97;100.00;99326.06;5023134;28;20041;-74
2022/07/06 03:54:37;;;;;;;5.63;3.50;;;;;;;12.93;100.00;99327.50;5024786;28;20025;-74
2022/07/06 03:57:03;;;;;;;6.05;3.22;;;;;;;12.93;100.00;99320.19;5028680;28;20029;-74
2022/07/06 03:59:28;;;;;;;4.38;2.85;;;;;;;12.83;100.00;99316.22;5026952;28;20493;-74
2022/07/06 04:01:53;;;;;;;5.20;3.00;;;;;;;12.76;100.00;99313.50;5026718;28;20029;-74
2022/07/06 04:04:19;;;;;;;3.70;2.90;;;;;;;12.98;100.00;99322.28;5026322;28;20032;-74
2022/07/06 04:06:44;;;;;;;4.55;3.17;;;;;;;12.98;100.00;99313.31;5025243;28;20033;-74
2022/07/06 04:09:09;;;;;;;3.25;2.67;;;;;;;13.06;100.00;99340.28;5027143;28;20045;-74
2022/07/06 04:11:35;;;;;;;6.88;3.30;;;;;;;13.04;100.00;99335.03;5024371;28;20045;-74
2022/07/06 04:14:00;;;;;;;5.40;2.80;;;;;;;12.88;100.00;99317.25;5025891;28;20108;-75
2022/07/06 04:16:25;;;;;;;6.72;2.67;;;;;;;12.89;100.00;99321.66;5021510;28;20022;-74
2022/07/06 04:18:51;;;;;;;5.10;3.40;;;;;;;12.90;100.00;99338.78;5020149;28;20430;-75
2022/07/06 04:21:16;;;;;;;7.03;3.40;;;;;;;12.93;100.00;99346.53;5027349;28;20045;-71
2022/07/06 04:23:41;;;;;;;6.10;3.42;;;;;;;12.91;100.00;99346.72;5022058;28;20021;-70
2022/07/06 04:26:07;;;;;;;4.72;3.22;;;;;;;13.02;100.00;99349.88;5024098;28;20033;-69
2022/07/06 04:28:32;;;;;;;7.05;3.17;;;;;;;13.10;100.00;99344.28;5028760;28;20033;-70
2022/07/06 04:30:58;;;;;;;8.57;4.05;;;;;;;13.13;100.00;99343.84;5026087;28;20364;-68
2022/07/06 04:33:23;;;;;;;6.32;2.92;;;;;;;13.24;100.00;99347.84;5028085;28;20025;-70
2022/07/06 04:35:48;;;;;;;6.10;3.13;;;;;;;13.27;100.00;99342.00;5019966;28;21000;-71
2022/07/06 04:38:14;;;;;;;7.20;3.33;;;;;;;13.46;100.00;99349.34;5025184;28;20026;-72
2022/07/06 04:40:39;;;;;;;9.32;3.30;;;;;;;13.58;100.00;99355.00;5028985;28;20026;-70
2022/07/06 04:43:04;;;;;;;6.10;3.10;;;;;;;13.84;100.00;99356.03;5020969;28;20386;-70
2022/07/06 04:45:30;;;;;;;3.70;2.70;;;;;;;13.86;100.00;99352.06;5023430;28;20033;-70
2022/07/06 04:47:55;;;;;;;8.70;3.42;;;;;;;13.86;100.00;99360.22;5026306;28;20036;-70
2022/07/06 04:50:20;;;;;;;8.43;3.15;;;;;;;14.01;100.00;99359.97;5029530;28;20068;-68
2022/07/06 04:52:46;;;;;;;5.82;2.80;;;;;;;14.11;100.00;99367.69;5027207;28;20033;-70
2022/07/06 04:55:13;;;;;;;5.05;2.50;;;;;;;14.25;100.00;99361.16;5029389;28;20025;-70
2022/07/06 04:57:39;;;;;;;5.90;3.20;;;;;;;14.37;100.00;99361.34;5027481;28;20018;-69
2022/07/06 05:00:05;;;;;;;5.82;2.65;;;;;;;14.40;100.00;99347.31;5026013;28;20376;-71
2022/07/06 05:02:30;;;;;;;8.18;3.08;;;;;;;14.72;100.00;99361.03;5026857;28;20048;-70
2022/07/06 05:04:55;;;;;;;9.55;3.50;;;;;;;14.73;100.00;99338.22;5028718;28;20025;-67
2022/07/06 05:07:20;;;;;;;6.18;2.85;;;;;;;14.96;100.00;99367.63;5026479;28;20155;-71
2022/07/06 05:09:46;;;;;;;4.88;2.85;;;;;;;14.80;100.00;99349.88;5033813;28;20069;-70
2022/07/06 05:12:11;;;;;;;8.02;3.25;;;;;;;14.92;100.00;99348.16;5025603;28;20061;-71
2022/07/06 05:14:36;;;;;;;7.88;2.80;;;;;;;15.17;100.00;99371.91;5027292;28;20032;-70
2022/07/06 05:17:02;;;;;;;8.55;3.05;;;;;;;15.35;100.00;99355.63;5029274;28;20146;-72
2022/07/06 05:19:27;;;;;;;8.82;2.90;;;;;;;15.55;100.00;99378.13;5034700;28;20104;-71
2022/07/06 05:21:53;;;;;;;6.68;3.17;;;;;;;15.48;100.00;99377.38;5026121;28;20037;-72
2022/07/06 05:24:18;;;;;;;6.22;3.17;;;;;;;15.44;100.00;99361.66;5028735;28;20037;-70
2022/07/06 05:26:44;;;;;;;7.22;3.63;;;;;;;15.44;100.00;99381.56;5030928;28;20104;-69
2022/07/06 05:29:09;;;;;;;3.63;2.88;;;;;;;15.61;100.00;99370.94;5032008;28;20071;-68
2022/07/06 05:31:35;;;;;;;4.15;3.10;;;;;;;15.78;100.00;99383.00;5031666;28;20037;-68
2022/07/06 05:34:00;;;;;;;6.55;3.83;;;;;;;15.90;95.40;99372.22;5028643;28;20034;-68
2022/07/06 05:36:25;;;;;;;5.82;3.45;;;;;;;16.15;94.73;99374.91;5030145;28;20041;-70
2022/07/06 05:38:51;;;;;;;5.97;3.53;;;;;;;16.42;91.34;99388.28;5028589;28;20069;-67
2022/07/06 05:41:16;;;;;;;5.25;3.80;;;;;;;16.56;87.23;99381.59;5026726;28;20038;-69
2022/07/06 05:43:41;;;;;;;5.70;3.28;;;;;;;16.48;89.77;99379.19;5032148;28;20030;-70
2022/07/06 05:46:07;;;;;;;5.53;3.50;;;;;;;16.67;86.82;99381.91;5029525;28;20029;-71
2022/07/06 05:51:16;;;;;;;5.97;2.60;;;;;;;17.07;82.20;99390.44;5030511;28;20095;-69
2022/07/06 05:53:41;;;;;;;5.20;3.08;;;;;;;17.20;80.53;99393.00;5031003;28;20116;-68
2022/07/06 05:56:06;;;;;;;5.03;2.85;;;;;;;17.47;79.14;99396.16;5027783;28;20422;-74
2022/07/06 05:58:31;;;;;;;5.55;2.80;;;;;;;17.55;79.36;99362.16;5033174;28;20045;-71
2022/07/06 06:00:57;;;;;;;5.38;2.58;;;;;;;17.72;75.93;99386.94;5032085;28;20116;-72
2022/07/06 06:03:22;;;;;;;5.40;2.50;;;;;;;17.75;74.42;99370.06;5030810;28;20048;-72
2022/07/06 06:05:47;;;;;;;5.50;2.63;;;;;;;18.10;72.14;99375.59;5033055;28;20033;-74
2022/07/06 06:08:13;;;;;;;4.20;2.53;;;;;;;18.71;69.54;99378.00;5043654;28;20116;-72
2022/07/06 06:10:38;;;;;;;3.35;1.85;;;;;;;19.16;66.59;99383.59;5032032;28;20116;-70
2022/07/06 06:13:03;;;;;;;3.65;2.50;;;;;;;19.39;64.52;99374.41;5029061;28;20044;-72
2022/07/06 06:15:29;;;;;;;4.75;2.20;;;;;;;19.23;63.39;99383.44;5027993;28;20037;-69
2022/07/06 06:17:54;;;;;;;4.07;2.03;;;;;;;19.81;63.98;99382.31;5030586;28;20018;-68
2022/07/06 06:20:20;;;;;;;4.53;2.38;;;;;;;19.61;61.99;99381.94;5026088;28;20033;-73
2022/07/06 06:22:47;;;;;;;4.15;1.98;;;;;;;19.87;60.78;99380.47;5030219;28;20040;-67
2022/07/06 06:25:14;;;;;;;6.15;2.00;;;;;;;19.87;60.47;99369.47;5028372;28;20172;-71
2022/07/06 06:27:39;;;;;;;3.72;2.10;;;;;;;20.22;61.11;99387.59;5022761;28;20037;-71
2022/07/06 06:30:05;;;;;;;2.80;1.80;;;;;;;20.64;60.25;99382.44;5030609;28;20025;-71
2022/07/06 06:32:30;;;;;;;9.70;1.90;;;;;;;20.68;60.01;99380.03;5029781;28;20494;-72
2022/07/06 06:34:56;;;;;;;2.17;1.55;;;;;;;20.68;61.02;99385.50;5032552;28;20048;-71
2022/07/06 06:37:21;;;;;;;4.13;2.00;;;;;;;20.96;58.87;99395.50;5023829;28;20482;-73
2022/07/06 06:39:46;;;;;;;3.40;2.00;;;;;;;21.17;57.44;99391.88;5025612;28;20025;-72
2022/07/06 06:42:11;;;;;;;3.25;2.03;;;;;;;20.92;56.99;99388.84;5028795;28;20029;-71
2022/07/06 06:44:37;;;;;;;3.15;1.95;;;;;;;20.87;58.99;99403.34;5030571;28;20025;-72
2022/07/06 06:47:02;;;;;;;5.30;1.95;;;;;;;21.11;58.37;99390.16;5028324;28;20033;-72
2022/07/06 06:49:27;;;;;;;2.85;1.83;;;;;;;21.45;57.82;99393.56;5028423;28;20025;-72
2022/07/06 06:51:53;;;;;;;6.25;2.00;;;;;;;21.66;55.85;99402.03;5029113;28;20108;-70
2022/07/06 06:54:18;;;;;;;3.53;1.75;;;;;;;22.10;55.19;99393.56;5025366;28;20037;-73
2022/07/06 06:56:43;;;;;;;3.20;1.88;;;;;;;22.66;52.07;99393.94;5028492;28;20057;-71
2022/07/06 06:59:09;;;;;;;3.25;1.77;;;;;;;21.64;54.13;99401.44;5028243;28;20029;-72
2022/07/06 07:01:34;;;;;;;2.72;1.48;;;;;;;22.82;53.17;99400.38;5028049;28;20035;-70
2022/07/06 07:03:59;;;;;;;2.53;1.58;;;;;;;23.90;50.70;99389.59;5031891;28;20116;-68
2022/07/06 07:06:25;;;;;;;5.00;1.58;;;;;;;24.02;48.12;99390.13;5029256;28;20041;-67
2022/07/06 07:08:50;;;;;;;8.32;1.70;;;;;;;24.44;47.12;99387.06;5026248;28;20032;-70
2022/07/06 07:11:15;;;;;;;4.63;1.60;;;;;;;24.71;46.15;99389.47;5022471;28;20041;-67
2022/07/06 07:13:40;;;;;;;4.88;1.42;;;;;;;25.04;45.89;99384.34;5029457;28;20506;-70
2022/07/06 07:16:06;;;;;;;1.73;1.40;;;;;;;24.42;46.79;99360.78;5029783;28;20175;-68
2022/07/06 07:18:31;;;;;;;2.08;1.17;;;;;;;26.02;44.67;99385.38;5031639;28;20028;-71
2022/07/06 07:20:57;;;;;;;5.80;1.08;;;;;;;28.49;39.87;99375.31;5029742;28;20104;-68
2022/07/06 07:23:22;;;;;;;3.53;1.27;;;;;;;30.29;35.95;99374.91;5026413;28;20029;-72
2022/07/06 07:25:47;;;;;;;3.08;1.30;;;;;;;31.05;34.38;99371.06;5027874;28;20036;-67
2022/07/06 07:28:13;;;;;;;3.28;1.30;;;;;;;32.27;33.07;99363.50;5029113;28;20056;-73
2022/07/06 07:30:38;;;;;;;3.72;1.40;;;;;;;31.42;33.27;99359.31;5026845;28;20025;-66
2022/07/06 07:33:03;;;;;;;4.68;1.67;;;;;;;29.69;34.95;99381.69;5043365;28;20045;-71
2022/07/06 07:35:29;;;;;;;4.53;1.33;;;;;;;28.08;37.81;99359.34;5050259;28;20022;-72
2022/07/06 07:37:54;;;;;;;3.28;1.27;;;;;;;29.67;36.76;99378.41;5051554;28;20029;-72
2022/07/06 07:40:20;;;;;;;2.47;1.30;;;;;;;30.84;35.41;99380.06;5049110;28;20412;-72
2022/07/06 07:42:45;;;;;;;2.92;1.70;;;;;;;30.92;34.43;99379.28;5051457;28;20025;-71
2022/07/06 07:45:11;;;;;;;2.85;1.38;;;;;;;30.06;35.77;99380.47;5046678;28;20021;-72
2022/07/06 07:47:37;;;;;;;5.00;1.35;;;;;;;29.44;36.37;99377.50;5038394;28;20106;-72
2022/07/06 07:50:03;;;;;;;2.88;1.40;;;;;;;30.56;34.96;99369.09;5029865;28;20430;-68
2022/07/06 07:52:28;;;;;;;5.93;1.40;;;;;;;31.84;33.06;99372.78;5026323;28;20029;-73
2022/07/06 07:54:53;;;;;;;2.00;1.20;;;;;;;32.62;31.75;99368.97;5022693;28;20045;-75
2022/07/06 07:57:19;;;;;;;4.57;1.60;;;;;;;32.67;31.03;99368.78;5028777;28;20414;-72
2022/07/06 07:59:44;;;;;;;5.65;1.20;;;;;;;32.47;32.11;99371.19;5026701;28;20052;-70
2022/07/06 08:02:09;;;;;;;3.92;1.02;;;;;;;32.66;31.79;99365.16;5024468;28;20394;-70
2022/07/06 08:04:35;;;;;;;5.78;1.23;;;;;;;32.60;31.31;99369.34;5028531;28;20036;-70
2022/07/06 08:07:00;;;;;;;3.72;1.15;;;;;;;32.83;31.34;99364.28;5025639;28;20496;-70
2022/07/06 08:09:26;;;;;;;4.70;1.50;;;;;;;33.21;29.93;99362.59;5023857;28;20079;-70
2022/07/06 08:11:51;;;;;;;2.03;1.17;;;;;;;33.91;28.99;99365.66;5017244;28;20033;-70
2022/07/06 08:14:16;;;;;;;5.40;1.58;;;;;;;33.79;29.67;99363.59;5040567;22;20037;-67
2022/07/06 08:16:42;;;;;;;4.13;1.10;;;;;;;33.50;29.36;99372.91;5022628;28;20060;-68
2022/07/06 08:19:08;;;;;;;3.78;1.50;;;;;;;34.04;29.30;99368.16;5023421;28;20100;-68
2022/07/06 08:21:33;;;;;;;5.22;1.13;;;;;;;33.80;29.03;99366.06;5024445;28;20025;-68
2022/07/06 08:24:00;;;;;;;3.80;1.40;;;;;;;34.03;28.69;99363.72;5011228;28;20026;-68
2022/07/06 08:26:26;;;;;;;3.28;1.30;;;;;;;34.61;28.50;99363.75;5008498;28;20487;-68
2022/07/06 08:28:51;;;;;;;4.95;1.40;;;;;;;34.24;27.89;99365.63;5018412;28;20120;-67
2022/07/06 08:31:17;;;;;;;2.03;1.10;;;;;;;34.87;28.60;99351.31;5005416;28;20109;-74
2022/07/06 08:33:42;;;;;;;5.32;1.30;;;;;;;34.87;28.20;99342.88;4987753;28;20044;-70
2022/07/06 08:36:08;;;;;;;3.95;1.23;;;;;;;35.78;27.61;99339.63;5000694;28;20054;-72
2022/07/06 08:38:33;;;;;;;4.68;1.48;;;;;;;36.40;26.41;99357.84;5008200;28;20026;-69
2022/07/06 08:40:58;;;;;;;4.82;1.17;;;;;;;36.44;26.51;99360.75;5008569;28;20020;-69
2022/07/06 08:43:24;;;;;;;1.65;1.00;;;;;;;36.32;26.45;99349.56;5003436;28;20022;-69
2022/07/06 08:45:53;;;;;;;2.42;1.27;;;;;;;36.02;26.65;99360.41;4980554;28;20034;-70
2022/07/06 08:48:22;;;;;;;2.08;1.10;;;;;;;36.75;26.83;99357.13;4978174;28;20030;-67
2022/07/06 08:50:48;;;;;;;3.58;1.20;;;;;;;36.76;26.88;99353.13;4990677;28;20502;-66
2022/07/06 08:53:14;;;;;;;5.45;1.50;;;;;;;36.75;26.21;99361.94;4991934;28;20034;-66
2022/07/06 08:55:40;;;;;;;2.95;1.55;;;;;;;36.01;26.86;99364.41;4989734;28;20060;-67
2022/07/06 08:58:07;;;;;;;1.70;1.45;;;;;;;35.28;27.47;99369.09;4991071;28;20405;-67
2022/07/06 09:00:33;;;;;;;2.40;1.20;;;;;;;35.10;27.08;99362.91;4991300;28;20029;-66
2022/07/06 09:02:58;;;;;;;4.40;1.17;;;;;;;35.78;28.10;99362.16;4995725;28;20038;-66
2022/07/06 09:05:24;;;;;;;2.15;1.15;;;;;;;36.90;26.13;99363.13;4996518;28;20030;-66
2022/07/06 09:07:52;;;;;;;3.28;1.23;;;;;;;35.38;27.98;99374.22;4992281;28;20037;-68
2022/07/06 09:10:19;;;;;;;5.07;1.10;;;;;;;36.15;27.00;99373.25;4995291;28;20030;-68
2022/07/06 09:12:45;;;;;;;5.80;1.13;;;;;;;36.56;25.83;99376.78;4989116;28;20053;-69
2022/07/06 09:15:10;;;;;;;3.50;1.30;;;;;;;36.52;25.47;99375.84;5005401;28;20033;-73
2022/07/06 09:17:40;;;;;;;6.15;1.33;;;;;;;35.70;26.50;99380.03;5002058;28;20364;-71
2022/07/06 09:20:14;;;;;;;5.93;1.25;;;;;;;35.60;27.58;99375.72;5001829;28;20034;-75
2022/07/06 09:22:40;;;;;;;5.60;1.33;;;;;;;36.25;26.88;99372.72;4995054;28;20131;-73
2022/07/06 09:25:12;;;;;;;4.00;1.30;;;;;;;35.96;25.92;99380.38;5003723;28;20022;-72
2022/07/06 09:27:42;;;;;;;2.35;1.33;;;;;;;34.50;27.83;99379.38;5008065;28;20041;-72
2022/07/06 09:30:10;;;;;;;5.18;1.50;;;;;;;35.72;27.07;99386.13;5003640;28;20127;-72
2022/07/06 09:32:43;;;;;;;3.10;1.23;;;;;;;35.71;26.67;99385.31;4985742;28;20050;-72
2022/07/06 09:35:23;;;;;;;3.92;1.65;;;;;;;36.97;25.31;99375.41;5012114;28;20037;-69
2022/07/06 09:38:09;;;;;;;4.22;1.40;;;;;;;36.38;26.33;99382.75;5002139;28;20029;-71
2022/07/06 09:40:45;;;;;;;3.78;1.58;;;;;;;36.17;26.52;99385.00;4994254;28;20069;-72
2022/07/06 09:43:19;;;;;;;4.03;1.73;;;;;;;35.60;26.53;99380.53;5011151;28;20120;-70
2022/07/06 09:45:55;;;;;;;5.35;1.77;;;;;;;35.19;27.83;99366.44;5009455;28;20487;-74
2022/07/06 09:48:26;;;;;;;4.90;1.40;;;;;;;36.07;26.37;99391.16;5003597;28;20026;-71
2022/07/06 09:50:54;;;;;;;6.38;1.80;;;;;;;35.11;27.57;99385.06;5007311;28;20026;-67
2022/07/06 09:53:21;;;;;;;2.63;1.35;;;;;;;35.25;27.10;99381.06;5003278;28;20026;-66
2022/07/06 09:55:48;;;;;;;2.78;1.20;;;;;;;35.20;27.42;99390.56;5004402;28;20099;-70
2022/07/06 09:58:15;;;;;;;2.67;1.50;;;;;;;35.48;26.43;99401.06;5009293;28;20029;-71
2022/07/06 10:00:44;;;;;;;2.70;1.00;;;;;;;35.21;27.24;99399.81;4999514;28;20392;-71
2022/07/06 10:03:10;;;;;;;2.95;1.00;;;;;;;36.88;25.91;99388.84;5008860;28;20030;-69
2022/07/06 10:05:42;;;;;;;1.52;1.05;;;;;;;37.45;25.36;99386.56;5008538;28;20483;-72
2022/07/06 10:08:09;;;;;;;2.70;1.10;;;;;;;34.47;28.15;99383.69;4992863;28;20113;-70
2022/07/06 10:10:39;;;;;;;3.78;1.30;;;;;;;32.06;31.51;99388.56;5001787;28;20065;-70
2022/07/06 10:13:08;;;;;;;8.82;1.55;;;;;;;31.12;32.12;99389.00;5009754;28;20038;-70
2022/07/06 10:15:35;;;;;;;4.30;1.52;;;;;;;29.52;33.46;99379.53;5006536;28;20029;-70
2022/07/06 10:18:02;;;;;;;4.72;1.30;;;;;;;30.88;32.00;99388.63;5009269;28;20137;-70
2022/07/06 10:20:31;;;;;;;3.42;1.65;;;;;;;33.34;30.43;99387.53;4999942;28;20022;-70
2022/07/06 10:23:00;;;;;;;2.45;1.23;;;;;;;31.58;31.06;99393.19;5004113;28;20037;-70
2022/07/06 10:25:25;;;;;;;3.63;1.50;;;;;;;30.79;32.75;99397.78;5007069;28;20169;-70
2022/07/06 10:27:51;;;;;;;4.05;1.30;;;;;;;32.57;29.51;99389.63;5004968;28;20034;-70
2022/07/06 10:30:17;;;;;;;5.70;1.30;;;;;;;32.77;30.24;99388.03;5017312;28;20022;-70
2022/07/06 10:32:45;;;;;;;4.65;1.35;;;;;;;33.47;29.24;99393.25;4984323;28;20629;-70
2022/07/06 10:35:11;;;;;;;4.10;1.00;;;;;;;34.66;27.45;99400.06;5023898;28;20081;-72
2022/07/06 10:37:37;;;;;;;7.43;1.25;;;;;;;32.73;31.21;99385.09;5012013;28;20037;-70
2022/07/06 10:42:58;;;;;;;2.45;1.00;;;;;;;34.41;27.88;99375.88;4999422;28;20486;-71
2022/07/06 10:45:26;;;;;;;2.50;0.98;;;;;;;35.78;26.64;99402.38;5011245;28;20033;-70
2022/07/06 10:48:10;;;;;;;3.50;1.35;;;;;;;35.38;26.63;99408.00;5007207;28;20121;-70
2022/07/06 10:50:36;;;;;;;2.58;1.02;;;;;;;33.97;28.66;99397.94;5005593;28;20040;-71
2022/07/06 10:53:02;;;;;;;8.15;1.73;;;;;;;31.23;31.53;99398.75;5010323;28;20030;-71
2022/07/06 10:55:38;;;;;;;3.65;1.20;;;;;;;28.96;35.88;99395.53;5005836;28;20045;-70
2022/07/06 10:58:04;;;;;;;5.82;1.17;;;;;;;30.27;33.65;99396.72;5002462;28;20092;-70
2022/07/06 11:01:00;;;;;;;3.97;1.38;;;;;;;32.24;31.08;99387.38;5011930;28;20052;-70
2022/07/06 11:03:31;;;;;;;3.20;1.40;;;;;;;33.50;29.86;99387.75;4988761;28;20041;-70
2022/07/06 11:06:01;;;;;;;3.95;1.10;;;;;;;34.92;27.97;99384.81;5010190;28;20538;-70
2022/07/06 11:08:52;;;;;;;7.47;1.33;;;;;;;35.77;26.34;99389.50;5012701;28;20040;-70
2022/07/06 11:11:19;;;;;;;1.77;0.93;;;;;;;34.75;28.09;99396.31;5006156;28;20053;-70
2022/07/06 11:14:01;;;;;;;5.05;1.48;;;;;;;34.44;27.81;99381.59;5012480;28;20028;-70
2022/07/06 11:16:28;;;;;;;2.95;1.10;;;;;;;34.08;28.09;99378.72;4988598;28;20061;-70
2022/07/06 11:19:01;;;;;;;3.53;1.10;;;;;;;32.58;30.61;99379.22;5011282;28;20059;-70
2022/07/06 11:21:59;;;;;;;4.03;1.42;;;;;;;32.99;29.49;99384.13;5005126;28;20029;-70
2022/07/06 11:24:29;;;;;;;6.63;1.30;;;;;;;33.97;29.34;99372.69;5014660;28;20112;-70
2022/07/06 11:26:57;;;;;;;4.88;1.05;;;;;;;34.66;28.02;99380.38;5002563;28;20431;-70
2022/07/06 11:29:24;;;;;;;2.93;0.90;;;;;;;34.64;26.84;99377.09;5007886;28;20045;-70
2022/07/06 11:31:52;;;;;;;4.93;1.15;;;;;;;35.05;28.31;99361.13;5008636;28;20061;-70
2022/07/06 11:34:22;;;;;;;2.97;0.95;;;;;;;34.52;28.11;99368.63;5013080;28;20040;-70